createdAt,value
2023-02-14T00:01:11.566Z,9.20
2023-02-14T00:03:39.668Z,9.20
2023-02-14T00:06:12.039Z,9.20
2023-02-14T00:08:41.125Z,9.20
2023-02-14T00:11:10.995Z,9.20
2023-02-14T00:13:38.240Z,9.20
2023-02-14T00:16:05.312Z,9.10
2023-02-14T00:18:50.881Z,9.10
2023-02-14T00:21:17.878Z,9.10
2023-02-14T00:23:44.978Z,9.10
2023-02-14T00:26:15.995Z,9.10
2023-02-14T00:28:43.804Z,9.10
2023-02-14T00:31:10.977Z,9.10
2023-02-14T00:33:38.437Z,9.10
2023-02-14T00:36:07.352Z,9.10
2023-02-14T00:38:34.614Z,9.10
2023-02-14T00:41:02.254Z,9.10
2023-02-14T00:43:29.339Z,9.10
2023-02-14T00:45:57.531Z,9.10
2023-02-14T00:48:24.837Z,9.10
2023-02-14T00:50:51.813Z,9.10
2023-02-14T00:53:18.921Z,9.10
2023-02-14T00:55:47.091Z,9.10
2023-02-14T00:58:15.319Z,9.10
2023-02-14T01:00:42.267Z,9.10
2023-02-14T01:03:09.347Z,9.10
2023-02-14T01:05:36.322Z,9.10
2023-02-14T01:08:04.625Z,9.10
2023-02-14T01:10:32.010Z,9.10
2023-02-14T01:12:59.466Z,9.10
2023-02-14T01:15:28.960Z,9.10
2023-02-14T01:17:58.790Z,9.10
2023-02-14T01:20:26.946Z,9.00
2023-02-14T01:22:54.018Z,9.10
2023-02-14T01:25:21.060Z,9.10
2023-02-14T01:27:48.370Z,9.10
2023-02-14T01:30:15.691Z,9.10
2023-02-14T01:32:42.761Z,9.10
2023-02-14T01:35:11.874Z,9.10
2023-02-14T01:37:39.203Z,9.10
2023-02-14T01:40:08.525Z,9.10
2023-02-14T01:42:36.547Z,9.10
2023-02-14T01:45:17.848Z,9.00
2023-02-14T01:47:48.854Z,9.00
2023-02-14T01:50:22.759Z,9.00
2023-02-14T01:53:01.233Z,9.00
2023-02-14T01:55:33.901Z,9.00
2023-02-14T01:58:09.243Z,9.00
2023-02-14T02:00:57.417Z,9.00
2023-02-14T02:03:41.506Z,9.00
2023-02-14T02:06:14.080Z,9.00
2023-02-14T02:08:48.660Z,9.00
2023-02-14T02:11:15.882Z,9.00
2023-02-14T02:13:42.803Z,9.00
2023-02-14T02:16:44.765Z,9.00
2023-02-14T02:19:14.933Z,9.00
2023-02-14T02:22:31.722Z,9.00
2023-02-14T02:25:13.639Z,9.00
2023-02-14T02:28:04.001Z,9.00
2023-02-14T02:30:49.644Z,9.00
2023-02-14T02:33:36.037Z,9.00
2023-02-14T02:36:30.649Z,9.00
2023-02-14T02:39:16.191Z,9.00
2023-02-14T02:42:30.825Z,9.00
2023-02-14T02:45:12.271Z,8.90
2023-02-14T02:48:14.624Z,9.00
2023-02-14T02:51:10.341Z,8.90
2023-02-14T02:53:47.977Z,8.90
2023-02-14T02:56:47.370Z,8.90
2023-02-14T02:59:20.930Z,8.90
2023-02-14T03:02:03.304Z,9.00
2023-02-14T03:04:53.142Z,8.90
2023-02-14T03:07:36.257Z,8.90
2023-02-14T03:10:31.912Z,8.90
2023-02-14T03:13:12.113Z,8.90
2023-02-14T03:16:08.822Z,8.90
2023-02-14T03:18:41.823Z,8.90
2023-02-14T03:21:30.586Z,8.90
2023-02-14T03:24:23.309Z,8.90
2023-02-14T03:27:03.053Z,8.90
2023-02-14T03:29:35.304Z,8.90
2023-02-14T03:32:21.983Z,8.90
2023-02-14T03:35:09.453Z,8.90
2023-02-14T03:37:41.763Z,8.90
2023-02-14T03:40:40.566Z,8.90
2023-02-14T03:43:12.742Z,8.90
2023-02-14T03:45:52.058Z,8.90
2023-02-14T03:48:24.064Z,8.90
2023-02-14T03:50:52.764Z,8.90
2023-02-14T03:53:23.989Z,8.90
2023-02-14T03:56:31.999Z,8.90
2023-02-14T03:59:06.713Z,8.90
2023-02-14T04:01:39.318Z,8.90
2023-02-14T04:04:09.003Z,8.90
2023-02-14T04:06:36.232Z,8.90
2023-02-14T04:09:03.691Z,8.90
2023-02-14T04:11:35.106Z,8.90
2023-02-14T04:14:03.074Z,8.90
2023-02-14T04:16:30.024Z,8.90
2023-02-14T04:19:15.637Z,8.90
2023-02-14T04:21:42.866Z,8.90
2023-02-14T04:24:09.876Z,8.90
2023-02-14T04:26:36.781Z,8.80
2023-02-14T04:29:03.946Z,8.80
2023-02-14T04:31:30.959Z,8.90
2023-02-14T04:33:58.017Z,8.80
2023-02-14T04:36:24.942Z,8.80
2023-02-14T04:38:51.937Z,8.80
2023-02-14T04:41:18.914Z,8.80
2023-02-14T04:43:45.965Z,8.80
2023-02-14T04:46:13.357Z,8.80
2023-02-14T04:48:40.462Z,8.80
2023-02-14T04:51:07.495Z,8.80
2023-02-14T04:53:40.210Z,8.80
2023-02-14T04:56:07.704Z,8.80
2023-02-14T04:58:35.141Z,8.90
2023-02-14T05:01:02.599Z,8.80
2023-02-14T05:03:29.927Z,8.80
2023-02-14T05:05:56.870Z,8.80
2023-02-14T05:08:23.896Z,8.80
2023-02-14T05:10:50.852Z,8.80
2023-02-14T05:13:18.210Z,8.80
2023-02-14T05:15:46.032Z,8.80
2023-02-14T05:18:13.095Z,8.80
2023-02-14T05:20:40.134Z,8.80
2023-02-14T05:23:13.685Z,8.80
2023-02-14T05:25:41.289Z,8.80
2023-02-14T05:28:08.296Z,8.80
2023-02-14T05:30:35.733Z,8.80
2023-02-14T05:33:02.887Z,8.80
2023-02-14T05:35:30.309Z,8.80
2023-02-14T05:37:57.285Z,8.80
2023-02-14T05:42:53.022Z,8.80
2023-02-14T05:45:20.314Z,8.80
2023-02-14T05:47:48.663Z,8.80
2023-02-14T05:50:16.516Z,8.80
2023-02-14T05:52:44.348Z,8.80
2023-02-14T05:55:11.879Z,8.80
2023-02-14T05:57:38.924Z,8.80
2023-02-14T06:00:07.941Z,8.80
2023-02-14T06:02:40.875Z,8.80
2023-02-14T06:05:08.364Z,8.80
2023-02-14T06:07:35.405Z,8.80
2023-02-14T06:10:02.351Z,8.80
2023-02-14T06:12:29.238Z,8.70
2023-02-14T06:14:56.187Z,8.70
2023-02-14T06:17:23.180Z,8.70
2023-02-14T06:19:50.183Z,8.70
2023-02-14T06:22:17.116Z,8.70
2023-02-14T06:24:44.172Z,8.70
2023-02-14T06:27:11.222Z,8.70
2023-02-14T06:29:38.329Z,8.70
2023-02-14T06:32:07.082Z,8.70
2023-02-14T06:34:34.648Z,8.70
2023-02-14T06:37:01.790Z,8.70
2023-02-14T06:39:28.853Z,8.80
2023-02-14T06:41:55.908Z,8.80
2023-02-14T06:44:22.877Z,8.80
2023-02-14T06:46:50.020Z,8.70
2023-02-14T06:49:17.448Z,8.70
2023-02-14T06:51:44.600Z,8.80
2023-02-14T06:54:11.834Z,8.70
2023-02-14T06:56:39.032Z,8.80
2023-02-14T06:59:06.468Z,8.70
2023-02-14T07:01:33.722Z,8.80
2023-02-14T07:04:00.944Z,8.70
2023-02-14T07:06:28.041Z,8.80
2023-02-14T07:08:55.093Z,8.80
2023-02-14T07:11:22.161Z,8.80
2023-02-14T07:13:49.648Z,8.80
2023-02-14T07:16:16.753Z,8.80
2023-02-14T07:18:43.795Z,8.80
2023-02-14T07:21:10.801Z,8.80
2023-02-14T07:23:37.997Z,8.80
2023-02-14T07:26:05.279Z,8.80
2023-02-14T07:28:33.743Z,8.80
2023-02-14T07:31:02.052Z,8.80
2023-02-14T07:33:29.497Z,8.80
2023-02-14T07:35:56.594Z,8.80
2023-02-14T07:38:24.601Z,8.90
2023-02-14T07:40:54.042Z,8.90
2023-02-14T07:43:21.128Z,8.90
2023-02-14T07:45:48.885Z,8.90
2023-02-14T07:48:15.978Z,8.90
2023-02-14T07:50:43.251Z,8.90
2023-02-14T07:53:10.790Z,8.90
2023-02-14T07:55:38.015Z,8.90
2023-02-14T07:58:05.077Z,9.00
2023-02-14T08:00:32.154Z,9.00
2023-02-14T08:02:59.153Z,9.00
2023-02-14T08:05:26.172Z,9.00
2023-02-14T08:07:53.294Z,9.00
2023-02-14T08:10:20.561Z,9.00
2023-02-14T08:12:59.565Z,9.10
2023-02-14T08:15:53.163Z,9.10
2023-02-14T08:18:23.262Z,9.10
2023-02-14T08:20:50.538Z,9.20
2023-02-14T08:23:19.082Z,9.20
2023-02-14T08:25:47.681Z,9.20
2023-02-14T08:28:15.140Z,9.20
2023-02-14T08:30:43.468Z,9.20
2023-02-14T08:33:10.921Z,9.20
2023-02-14T08:35:38.695Z,9.20
2023-02-14T08:38:05.982Z,9.20
2023-02-14T08:40:34.415Z,9.30
2023-02-14T08:43:01.514Z,9.30
2023-02-14T08:45:28.632Z,9.30
2023-02-14T08:48:00.086Z,9.30
2023-02-14T08:50:28.622Z,9.30
2023-02-14T08:52:55.739Z,9.30
2023-02-14T08:55:22.762Z,9.30
2023-02-14T08:57:49.887Z,9.40
2023-02-14T09:00:17.562Z,9.40
2023-02-14T09:02:44.741Z,9.40
2023-02-14T09:05:11.948Z,9.40
2023-02-14T09:07:38.925Z,9.40
2023-02-14T09:10:06.778Z,9.40
2023-02-14T09:12:33.934Z,9.40
2023-02-14T09:15:00.886Z,9.40
2023-02-14T09:17:28.110Z,9.40
2023-02-14T09:19:55.192Z,9.40
2023-02-14T09:22:22.406Z,9.40
2023-02-14T09:24:49.650Z,9.40
2023-02-14T09:27:16.613Z,9.40
2023-02-14T09:29:43.953Z,9.40
2023-02-14T09:32:11.398Z,9.40
2023-02-14T09:34:57.336Z,9.40
2023-02-14T09:37:24.433Z,9.40
2023-02-14T09:39:51.389Z,9.40
2023-02-14T09:43:13.009Z,9.50
2023-02-14T09:45:41.145Z,9.50
2023-02-14T09:48:21.693Z,9.50
2023-02-14T09:50:54.810Z,9.50
2023-02-14T09:53:32.460Z,9.50
2023-02-14T09:56:13.930Z,9.50
2023-02-14T09:58:44.319Z,9.50
2023-02-14T10:01:42.079Z,9.50
2023-02-14T10:04:40.650Z,9.50
2023-02-14T10:07:53.624Z,9.50
2023-02-14T10:10:45.963Z,9.60
2023-02-14T10:13:22.635Z,9.60
2023-02-14T10:15:58.960Z,9.60
2023-02-14T10:18:45.124Z,9.60
2023-02-14T10:21:24.023Z,9.60
2023-02-14T10:24:14.264Z,9.60
2023-02-14T10:26:41.577Z,9.60
2023-02-14T10:29:20.194Z,9.60
2023-02-14T10:31:57.764Z,9.60
2023-02-14T10:34:48.264Z,9.70
2023-02-14T10:37:21.063Z,9.70
2023-02-14T10:40:06.492Z,9.70
2023-02-14T10:42:51.534Z,9.70
2023-02-14T10:45:37.869Z,9.70
2023-02-14T10:48:04.869Z,9.60
2023-02-14T10:50:50.373Z,9.70
2023-02-14T10:53:26.728Z,9.60
2023-02-14T10:56:06.173Z,9.60
2023-02-14T10:58:36.937Z,9.60
2023-02-14T11:01:15.358Z,9.60
2023-02-14T11:03:56.101Z,9.60
2023-02-14T11:06:23.279Z,9.60
2023-02-14T11:08:50.431Z,9.60
2023-02-14T11:11:26.838Z,9.60
2023-02-14T11:13:54.027Z,9.60
2023-02-14T11:16:37.661Z,9.60
2023-02-14T11:19:20.126Z,9.60
2023-02-14T11:21:50.710Z,9.60
2023-02-14T11:24:35.629Z,9.60
2023-02-14T11:27:11.523Z,9.60
2023-02-14T11:29:41.673Z,9.60
2023-02-14T11:32:15.064Z,9.70
2023-02-14T11:34:46.090Z,9.60
2023-02-14T11:37:22.584Z,9.70
2023-02-14T11:39:51.039Z,9.70
2023-02-14T11:42:34.101Z,9.70
2023-02-14T11:45:01.208Z,9.70
2023-02-14T11:47:30.912Z,9.70
2023-02-14T11:50:06.192Z,9.70
2023-02-14T11:52:40.455Z,9.70
2023-02-14T11:55:07.796Z,9.80
2023-02-14T11:57:41.365Z,9.80
2023-02-14T12:00:27.079Z,9.80
2023-02-14T12:02:55.737Z,9.80
2023-02-14T12:05:30.948Z,9.80
2023-02-14T12:08:08.121Z,9.80
2023-02-14T12:10:37.496Z,9.80
2023-02-14T12:13:10.813Z,9.90
2023-02-14T12:15:43.856Z,9.90
2023-02-14T12:18:33.094Z,9.90
2023-02-14T12:21:31.327Z,9.90
2023-02-14T12:24:23.073Z,9.90
2023-02-14T12:27:05.005Z,9.90
2023-02-14T12:29:44.179Z,9.90
2023-02-14T12:32:23.936Z,9.90
2023-02-14T12:34:53.314Z,9.90
2023-02-14T12:37:46.939Z,9.90
2023-02-14T12:40:41.636Z,9.80
2023-02-14T12:43:35.074Z,9.90
2023-02-14T12:46:20.574Z,9.90
2023-02-14T12:49:23.342Z,9.90
2023-02-14T12:52:04.154Z,9.90
2023-02-14T12:54:46.331Z,9.90
2023-02-14T12:57:19.516Z,9.90
2023-02-14T13:00:02.055Z,9.90
2023-02-14T13:02:49.429Z,9.90
2023-02-14T13:05:44.876Z,9.90
2023-02-14T13:08:46.179Z,10.00
2023-02-14T13:11:26.378Z,10.00
2023-02-14T13:13:53.360Z,10.00
2023-02-14T13:16:23.239Z,10.00
2023-02-14T13:18:58.131Z,10.00
2023-02-14T13:21:28.882Z,10.00
2023-02-14T13:24:13.884Z,10.00
2023-02-14T13:26:45.294Z,10.10
2023-02-14T13:29:21.324Z,10.10
2023-02-14T13:31:49.873Z,10.10
2023-02-14T13:34:29.388Z,10.10
2023-02-14T13:36:58.248Z,10.10
2023-02-14T13:39:53.516Z,10.10
2023-02-14T13:42:49.183Z,10.10
2023-02-14T13:45:40.236Z,10.10
2023-02-14T13:48:07.250Z,10.10
2023-02-14T13:50:39.261Z,10.10
2023-02-14T13:53:12.811Z,10.10
2023-02-14T13:55:45.757Z,10.10
2023-02-14T13:58:22.380Z,10.10
2023-02-14T14:00:50.724Z,10.10
2023-02-14T14:03:30.264Z,10.10
2023-02-14T14:06:02.663Z,10.10
2023-02-14T14:08:39.534Z,10.10
2023-02-14T14:11:23.797Z,10.10
2023-02-14T14:13:50.820Z,10.10
2023-02-14T14:16:23.627Z,10.00
2023-02-14T14:19:05.046Z,10.00
2023-02-14T14:21:41.043Z,10.00
2023-02-14T14:24:20.946Z,10.00
2023-02-14T14:27:06.968Z,10.00
2023-02-14T14:29:53.085Z,9.90
2023-02-14T14:32:27.943Z,9.90
2023-02-14T14:35:00.433Z,9.90
2023-02-14T14:37:33.437Z,9.90
2023-02-14T14:40:03.035Z,9.80
2023-02-14T14:42:36.064Z,9.80
2023-02-14T14:45:24.061Z,9.80
2023-02-14T14:47:54.437Z,9.80
2023-02-14T14:50:27.568Z,9.80
2023-02-14T14:52:59.207Z,9.80
2023-02-14T14:55:30.163Z,9.70
2023-02-14T14:58:27.589Z,9.80
2023-02-14T15:00:54.717Z,9.80
2023-02-14T15:03:25.449Z,9.70
2023-02-14T15:06:04.675Z,9.70
2023-02-14T15:08:32.257Z,9.70
2023-02-14T15:11:02.455Z,9.70
2023-02-14T15:13:57.527Z,9.70
2023-02-14T15:16:40.797Z,9.70
2023-02-14T15:19:11.519Z,9.60
2023-02-14T15:21:44.149Z,9.60
2023-02-14T15:24:14.904Z,9.60
2023-02-14T15:26:44.974Z,9.60
2023-02-14T15:29:28.726Z,9.60
2023-02-14T15:31:59.853Z,9.60
2023-02-14T15:34:38.820Z,9.60
2023-02-14T15:37:07.182Z,9.60
2023-02-14T15:39:44.630Z,9.60
2023-02-14T15:42:32.944Z,9.60
2023-02-14T15:45:24.477Z,9.60
2023-02-14T15:47:54.293Z,9.50
2023-02-14T15:50:36.211Z,9.50
2023-02-14T15:53:20.180Z,9.50
2023-02-14T15:55:49.798Z,9.50
2023-02-14T15:58:23.652Z,9.50
2023-02-14T16:00:52.388Z,9.40
2023-02-14T16:03:26.131Z,9.40
2023-02-14T16:05:55.029Z,9.40
2023-02-14T16:08:30.912Z,9.30
2023-02-14T16:11:14.682Z,9.30
2023-02-14T16:13:44.928Z,9.20
2023-02-14T16:16:14.179Z,9.20
2023-02-14T16:18:44.064Z,9.10
2023-02-14T16:21:26.987Z,9.10
2023-02-14T16:24:14.351Z,9.10
2023-02-14T16:26:44.144Z,9.00
2023-02-14T16:29:14.831Z,9.00
2023-02-14T16:32:15.610Z,8.90
2023-02-14T16:34:39.860Z,8.90
2023-02-14T16:37:09.542Z,8.90
2023-02-14T16:39:38.937Z,8.90
2023-02-14T16:42:06.091Z,8.90
2023-02-14T16:44:33.485Z,8.80
2023-02-14T16:47:02.402Z,8.80
2023-02-14T16:49:29.549Z,8.80
2023-02-14T16:51:57.709Z,8.80
2023-02-14T16:54:26.722Z,8.80
2023-02-14T16:56:58.640Z,8.70
2023-02-14T16:59:25.909Z,8.70
2023-02-14T17:01:53.409Z,8.70
2023-02-14T17:04:21.251Z,8.60
2023-02-14T17:06:53.250Z,8.60
2023-02-14T17:09:27.447Z,8.60
2023-02-14T17:11:57.975Z,8.60
2023-02-14T17:14:29.252Z,8.60
2023-02-14T17:16:57.636Z,8.60
2023-02-14T17:19:25.044Z,8.50
2023-02-14T17:21:52.758Z,8.50
2023-02-14T17:24:19.813Z,8.40
2023-02-14T17:26:46.700Z,8.40
2023-02-14T17:29:13.649Z,8.40
2023-02-14T17:31:40.712Z,8.30
2023-02-14T17:34:08.238Z,8.30
2023-02-14T17:36:35.310Z,8.20
2023-02-14T17:39:03.620Z,8.20
2023-02-14T17:41:31.867Z,8.10
2023-02-14T17:44:02.164Z,8.10
2023-02-14T17:46:31.479Z,8.10
2023-02-14T17:48:59.266Z,8.00
2023-02-14T17:51:26.517Z,8.00
2023-02-14T17:53:53.438Z,7.90
2023-02-14T17:56:22.849Z,7.90
2023-02-14T17:58:51.579Z,7.80
2023-02-14T18:01:21.130Z,7.80
2023-02-14T18:03:48.847Z,7.80
2023-02-14T18:06:15.938Z,7.70
2023-02-14T18:08:53.170Z,7.70
2023-02-14T18:11:21.586Z,7.60
2023-02-14T18:13:49.918Z,7.60
2023-02-14T18:16:18.822Z,7.50
2023-02-14T18:18:46.446Z,7.50
2023-02-14T18:21:16.155Z,7.40
2023-02-14T18:23:43.280Z,7.40
2023-02-14T18:26:13.447Z,7.30
2023-02-14T18:28:40.611Z,7.30
2023-02-14T18:31:13.323Z,7.20
2023-02-14T18:33:40.872Z,7.20
2023-02-14T18:36:12.156Z,7.10
2023-02-14T18:38:43.841Z,7.10
2023-02-14T18:41:16.398Z,7.10
2023-02-14T18:43:45.170Z,7.00
2023-02-14T18:46:18.697Z,7.00
2023-02-14T18:48:45.930Z,6.90
2023-02-14T18:51:25.249Z,6.90
2023-02-14T18:53:54.756Z,6.80
2023-02-14T18:56:27.849Z,6.80
2023-02-14T18:59:00.555Z,6.80
2023-02-14T19:01:30.741Z,6.70
2023-02-14T19:04:00.091Z,6.70
2023-02-14T19:06:29.493Z,6.60
2023-02-14T19:08:57.177Z,6.60
2023-02-14T19:11:31.438Z,6.50
2023-02-14T19:14:01.331Z,6.50
2023-02-14T19:16:31.709Z,6.50
2023-02-14T19:18:59.557Z,6.40
2023-02-14T19:21:30.730Z,6.40
2023-02-14T19:23:58.066Z,6.30
2023-02-14T19:26:35.015Z,6.30
2023-02-14T19:29:05.127Z,6.30
2023-02-14T19:31:36.612Z,6.30
2023-02-14T19:34:08.391Z,6.20
2023-02-14T19:36:38.801Z,6.20
2023-02-14T19:39:06.034Z,6.20
2023-02-14T19:41:37.267Z,6.10
2023-02-14T19:44:06.714Z,6.10
2023-02-14T19:46:34.736Z,6.10
2023-02-14T19:49:02.274Z,6.00
2023-02-14T19:51:36.014Z,6.00
2023-02-14T19:54:09.817Z,6.00
2023-02-14T19:56:40.310Z,5.90
2023-02-14T19:59:09.150Z,5.90
2023-02-14T20:01:39.694Z,5.90
2023-02-14T20:04:10.122Z,5.80
2023-02-14T20:06:38.494Z,5.80
2023-02-14T20:09:06.685Z,5.80
2023-02-14T20:11:44.075Z,5.80
2023-02-14T20:14:11.013Z,5.80
2023-02-14T20:16:38.119Z,5.70
2023-02-14T20:19:08.616Z,5.70
2023-02-14T20:21:35.866Z,5.70
2023-02-14T20:24:04.536Z,5.70
2023-02-14T20:26:33.166Z,5.60
2023-02-14T20:29:03.861Z,5.60
2023-02-14T20:31:33.190Z,5.60
2023-02-14T20:34:00.777Z,5.60
2023-02-14T20:36:28.378Z,5.50
2023-02-14T20:39:00.675Z,5.50
2023-02-14T20:41:29.441Z,5.50
2023-02-14T20:44:04.256Z,5.50
2023-02-14T20:46:32.116Z,5.50
2023-02-14T20:48:59.212Z,5.40
2023-02-14T20:51:26.500Z,5.40
2023-02-14T20:53:54.298Z,5.40
2023-02-14T20:56:23.501Z,5.40
2023-02-14T20:58:51.359Z,5.40
2023-02-14T21:01:20.842Z,5.30
2023-02-14T21:03:51.005Z,5.30
2023-02-14T21:06:20.696Z,5.30
2023-02-14T21:08:48.272Z,5.30
2023-02-14T21:11:17.492Z,5.30
2023-02-14T21:13:44.775Z,5.30
2023-02-14T21:16:17.093Z,5.30
2023-02-14T21:18:51.805Z,5.20
2023-02-14T21:21:25.844Z,5.20
2023-02-14T21:23:53.679Z,5.20
2023-02-14T21:26:21.377Z,5.20
2023-02-14T21:28:48.705Z,5.20
2023-02-14T21:31:18.083Z,5.20
2023-02-14T21:33:45.191Z,5.10
2023-02-14T21:36:15.159Z,5.10
2023-02-14T21:38:42.350Z,5.10
2023-02-14T21:41:12.042Z,5.10
2023-02-14T21:43:41.841Z,5.10
2023-02-14T21:46:11.574Z,5.00
2023-02-14T21:48:57.451Z,5.00
2023-02-14T21:51:24.623Z,5.00
2023-02-14T21:53:51.627Z,5.00
2023-02-14T21:56:20.259Z,5.00
2023-02-14T21:58:49.146Z,5.00
2023-02-14T22:01:25.162Z,4.90
2023-02-14T22:03:52.642Z,4.90
2023-02-14T22:06:20.034Z,4.90
2023-02-14T22:08:50.997Z,4.90
2023-02-14T22:11:18.093Z,4.90
2023-02-14T22:13:45.267Z,4.80
2023-02-14T22:16:16.004Z,4.80
2023-02-14T22:18:43.500Z,4.80
2023-02-14T22:21:15.206Z,4.80
2023-02-14T22:23:42.629Z,4.80
2023-02-14T22:26:19.136Z,4.70
2023-02-14T22:28:47.941Z,4.70
2023-02-14T22:31:17.868Z,4.70
2023-02-14T22:33:46.604Z,4.70
2023-02-14T22:36:14.025Z,4.70
2023-02-14T22:38:41.296Z,4.70
2023-02-14T22:41:10.861Z,4.60
2023-02-14T22:43:39.109Z,4.60
2023-02-14T22:46:12.448Z,4.60
2023-02-14T22:48:40.026Z,4.60
2023-02-14T22:51:12.721Z,4.60
2023-02-14T22:53:39.869Z,4.60
2023-02-14T22:56:15.669Z,4.50
2023-02-14T22:58:43.066Z,4.50
2023-02-14T23:01:19.102Z,4.50
2023-02-14T23:03:47.925Z,4.50
2023-02-14T23:06:15.345Z,4.50
2023-02-14T23:08:44.913Z,4.50
2023-02-14T23:11:19.167Z,4.50
2023-02-14T23:14:05.348Z,4.50
2023-02-14T23:16:50.774Z,4.50
2023-02-14T23:19:46.838Z,4.50
2023-02-14T23:22:20.553Z,4.40
2023-02-14T23:24:49.458Z,4.40
2023-02-14T23:27:19.044Z,4.40
2023-02-14T23:29:46.116Z,4.40
2023-02-14T23:32:13.849Z,4.30
2023-02-14T23:34:42.610Z,4.30
2023-02-14T23:37:10.750Z,4.30
2023-02-14T23:39:37.937Z,4.20
2023-02-14T23:42:06.565Z,4.20
2023-02-14T23:44:34.379Z,4.20
2023-02-14T23:47:04.357Z,4.20
2023-02-14T23:49:33.803Z,4.20
2023-02-14T23:52:01.273Z,4.20
2023-02-14T23:54:28.662Z,4.20
2023-02-14T23:56:55.661Z,4.20
2023-02-14T23:59:22.697Z,4.10
